createdAt,value
2018-06-05T00:02:26.309Z,99170.00
2018-06-05T00:04:55.733Z,99169.00
2018-06-05T00:07:25.228Z,99162.00
2018-06-05T00:09:54.600Z,99162.00
2018-06-05T00:12:24.142Z,99161.00
2018-06-05T00:14:53.534Z,99162.00
2018-06-05T00:17:22.991Z,99162.00
2018-06-05T00:19:52.416Z,99159.00
2018-06-05T00:22:21.804Z,99166.00
2018-06-05T00:24:51.278Z,99163.00
2018-06-05T00:27:20.694Z,99159.00
2018-06-05T00:29:50.809Z,99158.00
2018-06-05T00:32:20.309Z,99162.00
2018-06-05T00:34:49.630Z,99156.00
2018-06-05T00:37:18.960Z,99151.00
2018-06-05T00:39:48.428Z,99155.00
2018-06-05T00:42:17.825Z,99152.00
2018-06-05T00:44:47.178Z,99151.00
2018-06-05T00:47:16.520Z,99157.00
2018-06-05T00:49:46.577Z,99159.00
2018-06-05T00:52:16.000Z,99156.00
2018-06-05T00:54:45.333Z,99166.00
2018-06-05T00:57:14.873Z,99164.00
2018-06-05T00:59:44.312Z,99164.00
2018-06-05T01:02:13.647Z,99170.00
2018-06-05T01:04:43.128Z,99167.00
2018-06-05T01:07:12.436Z,99166.00
2018-06-05T01:09:42.847Z,99168.00
2018-06-05T01:12:12.274Z,99163.00
2018-06-05T01:14:41.642Z,99170.00
2018-06-05T01:17:10.971Z,99163.00
2018-06-05T01:19:40.474Z,99171.00
2018-06-05T01:22:10.012Z,99173.00
2018-06-05T01:24:39.392Z,99167.00
2018-06-05T01:27:12.860Z,99168.00
2018-06-05T01:29:42.306Z,99168.00
2018-06-05T01:32:11.699Z,99163.00
2018-06-05T01:34:41.127Z,99160.00
2018-06-05T01:37:11.561Z,99170.00
2018-06-05T01:39:40.957Z,99170.00
2018-06-05T01:42:10.340Z,99163.00
2018-06-05T01:44:39.659Z,99161.00
2018-06-05T01:47:09.153Z,99171.00
2018-06-05T01:49:40.713Z,99171.00
2018-06-05T01:52:10.476Z,99171.00
2018-06-05T01:54:40.099Z,99171.00
2018-06-05T01:57:09.535Z,99169.00
2018-06-05T01:59:38.964Z,99166.00
2018-06-05T02:02:08.675Z,99172.00
2018-06-05T02:04:38.025Z,99168.00
2018-06-05T02:07:07.468Z,99176.00
2018-06-05T02:09:36.969Z,99169.00
2018-06-05T02:12:06.405Z,99174.00
2018-06-05T02:14:35.829Z,99169.00
2018-06-05T02:17:05.309Z,99169.00
2018-06-05T02:19:34.641Z,99166.00
2018-06-05T02:22:04.066Z,99158.00
2018-06-05T02:24:33.448Z,99167.00
2018-06-05T02:27:02.789Z,99166.00
2018-06-05T02:29:32.080Z,99167.00
2018-06-05T02:32:01.510Z,99167.00
2018-06-05T02:34:30.992Z,99170.00
2018-06-05T02:37:00.478Z,99169.00
2018-06-05T02:39:29.798Z,99169.00
2018-06-05T02:41:59.294Z,99171.00
2018-06-05T02:44:28.799Z,99176.00
2018-06-05T02:46:58.108Z,99176.00
2018-06-05T02:49:27.433Z,99181.00
2018-06-05T02:51:56.913Z,99181.00
2018-06-05T02:54:26.380Z,99185.00
2018-06-05T02:56:55.814Z,99187.00
2018-06-05T02:59:25.205Z,99194.00
2018-06-05T03:01:54.554Z,99189.00
2018-06-05T03:04:23.961Z,99190.00
2018-06-05T03:06:53.456Z,99208.00
2018-06-05T03:09:22.838Z,99199.00
2018-06-05T03:11:52.373Z,99212.00
2018-06-05T03:14:21.754Z,99206.00
2018-06-05T03:16:51.793Z,99210.00
2018-06-05T03:19:21.254Z,99207.00
2018-06-05T03:21:50.937Z,99218.00
2018-06-05T03:24:20.441Z,99213.00
2018-06-05T03:26:49.790Z,99219.00
2018-06-05T03:29:19.248Z,99224.00
2018-06-05T03:31:48.620Z,99227.00
2018-06-05T03:34:17.960Z,99227.00
2018-06-05T03:36:47.445Z,99222.00
2018-06-05T03:39:16.812Z,99223.00
2018-06-05T03:41:46.224Z,99230.00
2018-06-05T03:44:16.532Z,99230.00
2018-06-05T03:46:46.071Z,99233.00
2018-06-05T03:49:15.589Z,99229.00
2018-06-05T03:51:44.969Z,99239.00
2018-06-05T03:54:14.372Z,99229.00
2018-06-05T03:56:43.525Z,99235.00
2018-06-05T03:59:13.024Z,99239.00
2018-06-05T04:01:42.468Z,99245.00
2018-06-05T04:04:11.882Z,99240.00
2018-06-05T04:06:41.325Z,99247.00
2018-06-05T04:09:11.190Z,99250.00
2018-06-05T04:11:40.666Z,99262.00
2018-06-05T04:14:10.221Z,99256.00
2018-06-05T04:16:39.776Z,99251.00
2018-06-05T04:19:09.185Z,99251.00
2018-06-05T04:21:38.674Z,99258.00
2018-06-05T04:24:09.167Z,99256.00
2018-06-05T04:26:38.690Z,99261.00
2018-06-05T04:29:08.067Z,99257.00
2018-06-05T04:31:37.379Z,99264.00
2018-06-05T04:34:06.723Z,99276.00
2018-06-05T04:36:36.090Z,99274.00
2018-06-05T04:39:07.920Z,99283.00
2018-06-05T04:41:37.758Z,99280.00
2018-06-05T04:44:07.306Z,99274.00
2018-06-05T04:46:36.647Z,99289.00
2018-06-05T04:49:06.083Z,99282.00
2018-06-05T04:51:35.444Z,99296.00
2018-06-05T04:54:04.792Z,99288.00
2018-06-05T04:56:34.182Z,99281.00
2018-06-05T04:59:03.612Z,99294.00
2018-06-05T05:01:33.544Z,99293.00
2018-06-05T05:04:02.978Z,99295.00
2018-06-05T05:06:32.461Z,99304.00
2018-06-05T05:09:01.829Z,99298.00
2018-06-05T05:11:31.339Z,99308.00
2018-06-05T05:14:00.666Z,99307.00
2018-06-05T05:16:30.035Z,99314.00
2018-06-05T05:18:59.368Z,99308.00
2018-06-05T05:21:28.693Z,99304.00
2018-06-05T05:23:58.117Z,99308.00
2018-06-05T05:26:27.495Z,99316.00
2018-06-05T05:28:56.826Z,99316.00
2018-06-05T05:31:26.303Z,99323.00
2018-06-05T05:33:55.656Z,99319.00
2018-06-05T05:36:25.230Z,99317.00
2018-06-05T05:38:54.689Z,99314.00
2018-06-05T05:41:24.049Z,99315.00
2018-06-05T05:43:54.314Z,99326.00
2018-06-05T05:46:23.795Z,99317.00
2018-06-05T05:48:53.184Z,99321.00
2018-06-05T05:51:22.648Z,99325.00
2018-06-05T05:53:52.102Z,99327.00
2018-06-05T05:56:21.597Z,99326.00
2018-06-05T05:58:51.645Z,99319.00
2018-06-05T06:01:21.049Z,99323.00
2018-06-05T06:03:50.592Z,99320.00
2018-06-05T06:06:19.660Z,99317.00
2018-06-05T06:08:49.079Z,99319.00
2018-06-05T06:11:18.804Z,99321.00
2018-06-05T06:13:48.371Z,99320.00
2018-06-05T06:16:17.851Z,99322.00
2018-06-05T06:18:47.418Z,99319.00
2018-06-05T06:21:16.810Z,99317.00
2018-06-05T06:23:46.158Z,99320.00
2018-06-05T06:26:15.749Z,99326.00
2018-06-05T06:28:45.148Z,99331.00
2018-06-05T06:31:14.529Z,99325.00
2018-06-05T06:33:44.038Z,99333.00
2018-06-05T06:36:13.507Z,99331.00
2018-06-05T06:38:42.912Z,99329.00
2018-06-05T06:41:12.458Z,99332.00
2018-06-05T06:43:41.819Z,99332.00
2018-06-05T06:46:12.184Z,99336.00
2018-06-05T06:48:41.768Z,99334.00
2018-06-05T06:51:11.188Z,99336.00
2018-06-05T06:53:40.631Z,99340.00
2018-06-05T06:56:10.121Z,99349.00
2018-06-05T06:58:39.483Z,99340.00
2018-06-05T07:01:08.836Z,99343.00
2018-06-05T07:03:38.376Z,99340.00
2018-06-05T07:06:07.772Z,99344.00
2018-06-05T07:08:37.107Z,99341.00
2018-06-05T07:11:06.457Z,99343.00
2018-06-05T07:13:35.842Z,99341.00
2018-06-05T07:16:06.171Z,99339.00
2018-06-05T07:18:35.686Z,99342.00
2018-06-05T07:21:05.105Z,99347.00
2018-06-05T07:23:34.933Z,99350.00
2018-06-05T07:26:04.453Z,99345.00
2018-06-05T07:28:33.893Z,99351.00
2018-06-05T07:31:03.076Z,99345.00
2018-06-05T07:33:32.554Z,99347.00
2018-06-05T07:36:02.242Z,99355.00
2018-06-05T07:38:31.632Z,99359.00
2018-06-05T07:41:01.007Z,99359.00
2018-06-05T07:43:30.439Z,99366.00
2018-06-05T07:45:59.830Z,99360.00
2018-06-05T07:48:29.252Z,99359.00
2018-06-05T07:50:58.631Z,99360.00
2018-06-05T07:53:27.988Z,99366.00
2018-06-05T07:55:57.386Z,99368.00
2018-06-05T07:58:26.814Z,99373.00
2018-06-05T08:00:56.263Z,99365.00
2018-06-05T08:03:25.638Z,99375.00
2018-06-05T08:05:55.068Z,99378.00
2018-06-05T08:08:24.415Z,99374.00
2018-06-05T08:10:53.803Z,99378.00
2018-06-05T08:13:23.139Z,99367.00
2018-06-05T08:15:52.559Z,99374.00
2018-06-05T08:18:22.040Z,99368.00
2018-06-05T08:20:51.430Z,99375.00
2018-06-05T08:23:20.854Z,99373.00
2018-06-05T08:25:50.205Z,99385.00
2018-06-05T08:28:19.625Z,99383.00
2018-06-05T08:30:49.031Z,99387.00
2018-06-05T08:33:18.366Z,99386.00
2018-06-05T08:35:47.939Z,99386.00
2018-06-05T08:38:17.452Z,99391.00
2018-06-05T08:40:46.856Z,99390.00
2018-06-05T08:43:16.354Z,99390.00
2018-06-05T08:45:45.821Z,99393.00
2018-06-05T08:48:15.290Z,99394.00
2018-06-05T08:50:44.667Z,99398.00
2018-06-05T08:53:14.171Z,99402.00
2018-06-05T08:55:43.598Z,99400.00
2018-06-05T08:58:13.102Z,99398.00
2018-06-05T09:00:42.547Z,99388.00
2018-06-05T09:03:12.250Z,99401.00
2018-06-05T09:05:41.730Z,99397.00
2018-06-05T09:08:11.227Z,99398.00
2018-06-05T09:10:41.267Z,99399.00
2018-06-05T09:13:10.633Z,99393.00
2018-06-05T09:15:40.019Z,99402.00
2018-06-05T09:18:09.480Z,99408.00
2018-06-05T09:20:38.995Z,99413.00
2018-06-05T09:23:08.493Z,99415.00
2018-06-05T09:25:38.020Z,99413.00
2018-06-05T09:28:07.504Z,99419.00
2018-06-05T09:30:37.011Z,99424.00
2018-06-05T09:33:06.565Z,99416.00
2018-06-05T09:35:35.998Z,99419.00
2018-06-05T09:38:05.521Z,99415.00
2018-06-05T09:40:34.958Z,99420.00
2018-06-05T09:43:04.489Z,99423.00
2018-06-05T09:45:34.080Z,99417.00
2018-06-05T09:48:03.587Z,99422.00
2018-06-05T09:50:33.113Z,99419.00
2018-06-05T09:53:02.609Z,99406.00
2018-06-05T09:55:32.129Z,99409.00
2018-06-05T09:58:01.573Z,99417.00
2018-06-05T10:00:36.117Z,99418.00
2018-06-05T10:03:05.567Z,99420.00
2018-06-05T10:05:34.973Z,99428.00
2018-06-05T10:08:04.513Z,99425.00
2018-06-05T10:10:33.929Z,99426.00
2018-06-05T10:13:03.386Z,99419.00
2018-06-05T10:15:33.536Z,99431.00
2018-06-05T10:18:02.913Z,99425.00
2018-06-05T10:20:32.430Z,99430.00
2018-06-05T10:23:01.832Z,99435.00
2018-06-05T10:25:31.330Z,99424.00
2018-06-05T10:28:00.878Z,99417.00
2018-06-05T10:30:30.382Z,99416.00
2018-06-05T10:32:59.758Z,99424.00
2018-06-05T10:35:29.358Z,99423.00
2018-06-05T10:37:58.877Z,99419.00
2018-06-05T10:40:28.410Z,99418.00
2018-06-05T10:42:57.785Z,99418.00
2018-06-05T10:45:27.431Z,99420.00
2018-06-05T10:47:56.907Z,99421.00
2018-06-05T10:50:26.451Z,99413.00
2018-06-05T10:52:55.854Z,99420.00
2018-06-05T10:55:25.295Z,99417.00
2018-06-05T10:57:54.685Z,99422.00
2018-06-05T11:00:24.078Z,99413.00
2018-06-05T11:02:53.565Z,99408.00
2018-06-05T11:05:22.937Z,99414.00
2018-06-05T11:07:52.329Z,99415.00
2018-06-05T11:10:21.871Z,99414.00
2018-06-05T11:12:51.384Z,99404.00
2018-06-05T11:15:20.934Z,99415.00
2018-06-05T11:17:50.293Z,99410.00
2018-06-05T11:20:19.810Z,99412.00
2018-06-05T11:22:49.357Z,99417.00
2018-06-05T11:27:39.372Z,99417.00
2018-06-05T11:30:08.874Z,99416.00
2018-06-05T11:32:38.394Z,99409.00
2018-06-05T11:35:07.581Z,99408.00
2018-06-05T11:37:37.087Z,99421.00
2018-06-05T11:40:07.673Z,99418.00
2018-06-05T11:42:37.834Z,99418.00
2018-06-05T11:45:07.558Z,99419.00
2018-06-05T11:47:39.348Z,99409.00
2018-06-05T11:50:08.736Z,99407.00
2018-06-05T11:52:38.164Z,99411.00
2018-06-05T11:55:07.562Z,99408.00
2018-06-05T11:57:38.039Z,99405.00
2018-06-05T12:00:08.215Z,99400.00
2018-06-05T12:02:37.694Z,99395.00
2018-06-05T12:05:07.500Z,99399.00
2018-06-05T12:07:37.031Z,99398.00
2018-06-05T12:10:06.442Z,99396.00
2018-06-05T12:12:35.958Z,99394.00
2018-06-05T12:15:05.510Z,99394.00
2018-06-05T12:17:35.042Z,99393.00
2018-06-05T12:20:04.509Z,99396.00
2018-06-05T12:22:33.977Z,99396.00
2018-06-05T12:25:03.378Z,99390.00
2018-06-05T12:27:33.302Z,99383.00
2018-06-05T12:30:02.766Z,99384.00
2018-06-05T12:32:32.244Z,99385.00
2018-06-05T12:35:01.597Z,99380.00
2018-06-05T12:37:30.989Z,99380.00
2018-06-05T12:40:01.007Z,99382.00
2018-06-05T12:42:30.404Z,99387.00
2018-06-05T12:44:59.960Z,99380.00
2018-06-05T12:47:29.457Z,99385.00
2018-06-05T12:49:58.988Z,99380.00
2018-06-05T12:52:28.375Z,99374.00
2018-06-05T12:54:57.781Z,99381.00
2018-06-05T12:57:27.236Z,99372.00
2018-06-05T12:59:56.686Z,99378.00
2018-06-05T13:02:26.792Z,99381.00
2018-06-05T13:04:56.175Z,99373.00
2018-06-05T13:07:25.757Z,99374.00
2018-06-05T13:09:56.037Z,99372.00
2018-06-05T13:12:26.754Z,99374.00
2018-06-05T13:14:56.331Z,99374.00
2018-06-05T13:17:25.752Z,99382.00
2018-06-05T13:19:56.160Z,99374.00
2018-06-05T13:22:25.723Z,99375.00
2018-06-05T13:24:56.132Z,99376.00
2018-06-05T13:27:25.520Z,99376.00
2018-06-05T13:29:55.620Z,99375.00
2018-06-05T13:32:25.918Z,99372.00
2018-06-05T13:34:55.268Z,99379.00
2018-06-05T13:37:24.768Z,99370.00
2018-06-05T13:39:54.191Z,99373.00
2018-06-05T13:42:23.710Z,99376.00
2018-06-05T13:44:53.267Z,99373.00
2018-06-05T13:47:22.719Z,99375.00
2018-06-05T13:49:51.744Z,99363.00
2018-06-05T13:52:28.028Z,99365.00
2018-06-05T13:54:57.493Z,99363.00
2018-06-05T13:57:27.551Z,99363.00
2018-06-05T13:59:56.949Z,99361.00
2018-06-05T14:02:26.384Z,99359.00
2018-06-05T14:04:55.893Z,99357.00
2018-06-05T14:07:25.307Z,99362.00
2018-06-05T14:09:54.987Z,99367.00
2018-06-05T14:12:24.458Z,99364.00
2018-06-05T14:14:53.944Z,99365.00
2018-06-05T14:17:23.481Z,99359.00
2018-06-05T14:19:52.933Z,99357.00
2018-06-05T14:22:22.432Z,99347.00
2018-06-05T14:24:51.915Z,99366.00
2018-06-05T14:27:21.762Z,99350.00
2018-06-05T14:29:51.497Z,99350.00
2018-06-05T14:32:21.016Z,99361.00
2018-06-05T14:34:50.475Z,99344.00
2018-06-05T14:37:20.279Z,99343.00
2018-06-05T14:39:49.846Z,99350.00
2018-06-05T14:42:19.625Z,99342.00
2018-06-05T14:44:49.117Z,99341.00
2018-06-05T14:47:18.952Z,99343.00
2018-06-05T14:49:48.501Z,99343.00
2018-06-05T14:52:18.010Z,99348.00
2018-06-05T14:54:47.878Z,99338.00
2018-06-05T14:57:17.643Z,99335.00
2018-06-05T14:59:47.430Z,99335.00
2018-06-05T15:02:16.902Z,99334.00
2018-06-05T15:04:46.449Z,99327.00
2018-06-05T15:07:15.935Z,99329.00
2018-06-05T15:09:45.750Z,99328.00
2018-06-05T15:12:15.262Z,99326.00
2018-06-05T15:14:44.760Z,99326.00
2018-06-05T15:17:14.897Z,99332.00
2018-06-05T15:19:44.732Z,99330.00
2018-06-05T15:22:14.370Z,99331.00
2018-06-05T15:24:43.893Z,99318.00
2018-06-05T15:27:20.119Z,99319.00
2018-06-05T15:29:49.708Z,99327.00
2018-06-05T15:32:19.245Z,99318.00
2018-06-05T15:34:48.758Z,99322.00
2018-06-05T15:37:18.297Z,99316.00
2018-06-05T15:39:48.031Z,99313.00
2018-06-05T15:42:17.514Z,99315.00
2018-06-05T15:44:47.077Z,99312.00
2018-06-05T15:47:16.684Z,99316.00
2018-06-05T15:49:46.290Z,99309.00
2018-06-05T15:52:15.752Z,99309.00
2018-06-05T15:54:45.281Z,99311.00
2018-06-05T15:57:14.738Z,99313.00
2018-06-05T15:59:44.206Z,99308.00
2018-06-05T16:02:13.623Z,99311.00
2018-06-05T16:04:43.380Z,99309.00
2018-06-05T16:07:12.730Z,99309.00
2018-06-05T16:09:42.157Z,99291.00
2018-06-05T16:12:11.835Z,99299.00
2018-06-05T16:14:41.216Z,99299.00
2018-06-05T16:17:10.704Z,99293.00
2018-06-05T16:19:40.061Z,99298.00
2018-06-05T16:22:09.649Z,99304.00
2018-06-05T16:24:39.100Z,99292.00
2018-06-05T16:27:08.509Z,99307.00
2018-06-05T16:29:37.952Z,99289.00
2018-06-05T16:32:07.613Z,99294.00
2018-06-05T16:34:36.974Z,99286.00
2018-06-05T16:37:06.318Z,99288.00
2018-06-05T16:39:35.498Z,99291.00
2018-06-05T16:42:04.938Z,99299.00
2018-06-05T16:44:34.293Z,99296.00
2018-06-05T16:47:03.802Z,99292.00
2018-06-05T16:49:33.313Z,99291.00
2018-06-05T16:52:02.661Z,99292.00
2018-06-05T16:54:32.042Z,99291.00
2018-06-05T16:57:01.482Z,99291.00
2018-06-05T16:59:31.041Z,99307.00
2018-06-05T17:02:00.574Z,99288.00
2018-06-05T17:04:30.204Z,99294.00
2018-06-05T17:06:59.552Z,99289.00
2018-06-05T17:09:28.891Z,99288.00
2018-06-05T17:11:58.246Z,99291.00
2018-06-05T17:14:28.085Z,99292.00
2018-06-05T17:16:57.430Z,99289.00
2018-06-05T17:19:26.958Z,99294.00
2018-06-05T17:21:56.509Z,99288.00
2018-06-05T17:24:25.891Z,99288.00
2018-06-05T17:26:55.435Z,99293.00
2018-06-05T17:29:24.901Z,99297.00
2018-06-05T17:31:54.359Z,99305.00
2018-06-05T17:34:24.171Z,99310.00
2018-06-05T17:36:53.644Z,99312.00
2018-06-05T17:39:23.066Z,99316.00
2018-06-05T17:41:52.451Z,99312.00
2018-06-05T17:44:21.802Z,99312.00
2018-06-05T17:46:51.336Z,99311.00
2018-06-05T17:49:20.936Z,99321.00
2018-06-05T17:51:50.337Z,99317.00
2018-06-05T17:54:19.745Z,99319.00
2018-06-05T17:56:49.104Z,99321.00
2018-06-05T17:59:18.504Z,99316.00
2018-06-05T18:01:47.956Z,99319.00
2018-06-05T18:04:17.349Z,99321.00
2018-06-05T18:06:47.046Z,99322.00
2018-06-05T18:09:16.398Z,99318.00
2018-06-05T18:11:46.358Z,99324.00
2018-06-05T18:14:15.740Z,99324.00
2018-06-05T18:16:45.106Z,99326.00
2018-06-05T18:19:14.454Z,99332.00
2018-06-05T18:21:43.879Z,99330.00
2018-06-05T18:24:13.348Z,99329.00
2018-06-05T18:26:42.794Z,99329.00
2018-06-05T18:29:12.206Z,99333.00
2018-06-05T18:31:41.921Z,99331.00
2018-06-05T18:34:11.529Z,99333.00
2018-06-05T18:36:41.000Z,99331.00
2018-06-05T18:39:10.510Z,99336.00
2018-06-05T18:41:40.966Z,99340.00
2018-06-05T18:44:11.133Z,99340.00
2018-06-05T18:46:40.573Z,99333.00
2018-06-05T18:49:09.979Z,99344.00
2018-06-05T18:51:39.533Z,99340.00
2018-06-05T18:54:08.986Z,99343.00
2018-06-05T18:56:39.262Z,99343.00
2018-06-05T18:59:08.576Z,99344.00
2018-06-05T19:01:37.917Z,99352.00
2018-06-05T19:04:07.307Z,99351.00
2018-06-05T19:06:36.689Z,99357.00
2018-06-05T19:09:08.627Z,99368.00
2018-06-05T19:11:38.006Z,99361.00
2018-06-05T19:14:07.494Z,99359.00
2018-06-05T19:16:36.869Z,99368.00
2018-06-05T19:19:06.331Z,99369.00
2018-06-05T19:21:35.765Z,99376.00
2018-06-05T19:24:05.329Z,99374.00
2018-06-05T19:26:34.853Z,99380.00
2018-06-05T19:29:04.334Z,99385.00
2018-06-05T19:31:34.374Z,99378.00
2018-06-05T19:34:03.792Z,99387.00
2018-06-05T19:36:33.285Z,99389.00
2018-06-05T19:39:02.767Z,99393.00
2018-06-05T19:41:32.202Z,99401.00
2018-06-05T19:44:01.607Z,99394.00
2018-06-05T19:46:32.101Z,99402.00
2018-06-05T19:49:01.458Z,99404.00
2018-06-05T19:51:30.864Z,99410.00
2018-06-05T19:54:00.310Z,99414.00
2018-06-05T19:56:29.727Z,99425.00
2018-06-05T19:58:59.387Z,99419.00
2018-06-05T20:01:28.784Z,99428.00
2018-06-05T20:03:58.184Z,99426.00
2018-06-05T20:06:27.556Z,99427.00
2018-06-05T20:08:56.966Z,99426.00
2018-06-05T20:11:26.460Z,99428.00
2018-06-05T20:13:55.900Z,99426.00
2018-06-05T20:16:25.281Z,99436.00
2018-06-05T20:18:54.795Z,99432.00
2018-06-05T20:21:24.225Z,99434.00
2018-06-05T20:23:53.682Z,99436.00
2018-06-05T20:26:22.885Z,99443.00
2018-06-05T20:28:52.449Z,99436.00
2018-06-05T20:31:21.788Z,99432.00
2018-06-05T20:33:50.860Z,99436.00
2018-06-05T20:36:20.322Z,99440.00
2018-06-05T20:38:49.688Z,99437.00
2018-06-05T20:41:19.316Z,99436.00
2018-06-05T20:43:48.649Z,99446.00
2018-06-05T20:46:18.017Z,99447.00
2018-06-05T20:48:47.428Z,99444.00
2018-06-05T20:51:16.794Z,99441.00
2018-06-05T20:53:46.191Z,99446.00
2018-06-05T20:56:15.536Z,99443.00
2018-06-05T20:58:44.944Z,99447.00
2018-06-05T21:01:14.282Z,99445.00
2018-06-05T21:03:43.614Z,99446.00
2018-06-05T21:06:12.998Z,99442.00
2018-06-05T21:08:42.346Z,99450.00
2018-06-05T21:11:11.705Z,99445.00
2018-06-05T21:13:41.052Z,99445.00
2018-06-05T21:16:10.428Z,99448.00
2018-06-05T21:18:39.784Z,99448.00
2018-06-05T21:21:09.156Z,99458.00
2018-06-05T21:23:38.472Z,99464.00
2018-06-05T21:26:07.921Z,99454.00
2018-06-05T21:28:37.271Z,99462.00
2018-06-05T21:31:06.672Z,99467.00
2018-06-05T21:33:36.028Z,99467.00
2018-06-05T21:36:05.502Z,99469.00
2018-06-05T21:38:34.936Z,99479.00
2018-06-05T21:41:04.383Z,99480.00
2018-06-05T21:43:33.771Z,99479.00
2018-06-05T21:46:03.100Z,99475.00
2018-06-05T21:48:32.477Z,99483.00
2018-06-05T21:51:01.797Z,99487.00
2018-06-05T21:53:31.169Z,99495.00
2018-06-05T21:56:00.530Z,99495.00
2018-06-05T21:58:29.936Z,99499.00
2018-06-05T22:00:59.310Z,99495.00
2018-06-05T22:03:28.666Z,99497.00
2018-06-05T22:05:58.052Z,99492.00
2018-06-05T22:08:27.409Z,99493.00
2018-06-05T22:10:56.819Z,99491.00
2018-06-05T22:13:25.870Z,99500.00
2018-06-05T22:15:55.207Z,99488.00
2018-06-05T22:18:24.596Z,99489.00
2018-06-05T22:20:53.959Z,99492.00
2018-06-05T22:23:23.327Z,99486.00
2018-06-05T22:25:52.748Z,99491.00
2018-06-05T22:28:22.100Z,99496.00
2018-06-05T22:30:51.471Z,99499.00
2018-06-05T22:33:20.878Z,99495.00
2018-06-05T22:35:50.292Z,99490.00
2018-06-05T22:38:19.661Z,99500.00
2018-06-05T22:40:49.033Z,99500.00
2018-06-05T22:43:18.389Z,99505.00
2018-06-05T22:45:47.759Z,99502.00
2018-06-05T22:48:17.093Z,99502.00
2018-06-05T22:50:46.536Z,99507.00
2018-06-05T22:53:15.881Z,99501.00
2018-06-05T22:55:45.225Z,99509.00
2018-06-05T22:58:14.614Z,99509.00
2018-06-05T23:00:44.031Z,99506.00
2018-06-05T23:03:13.382Z,99514.00
2018-06-05T23:05:42.717Z,99508.00
2018-06-05T23:08:12.059Z,99510.00
2018-06-05T23:10:41.395Z,99516.00
2018-06-05T23:13:10.720Z,99516.00
2018-06-05T23:15:40.093Z,99519.00
2018-06-05T23:18:09.473Z,99504.00
2018-06-05T23:20:38.876Z,99507.00
2018-06-05T23:23:08.258Z,99506.00
2018-06-05T23:25:37.757Z,99508.00
2018-06-05T23:28:07.101Z,99508.00
2018-06-05T23:30:36.473Z,99506.00
2018-06-05T23:33:05.859Z,99511.00
2018-06-05T23:35:35.213Z,99512.00
2018-06-05T23:38:04.608Z,99517.00
2018-06-05T23:40:33.973Z,99518.00
2018-06-05T23:43:03.356Z,99511.00
2018-06-05T23:45:32.656Z,99520.00
2018-06-05T23:48:01.980Z,99525.00
2018-06-05T23:50:31.300Z,99528.00
2018-06-05T23:53:00.662Z,99530.00
2018-06-05T23:55:30.071Z,99534.00
2018-06-05T23:57:59.473Z,99534.00
